Terminal Aerodrome Forecast
Issued by NWS Mt. Holly, NJ

Home | Current Version | Previous Version | Text Only | Print | Product List | Glossary On
Versions: 1 2 3 4 5 6 7 8 9 10 11 12 13 14 15 16 17 18 19 20 21
000
FTUS41 KPHI 181100
TAFILG
TAF
KILG 181120Z 1812/1912 07005KT P6SM OVC023
     FM181500 09007KT P6SM SCT028 BKN250
      TEMPO 1815/1816 BKN028
     FM181800 15007KT P6SM OVC150
     FM190000 17007KT P6SM BKN150
     FM190600 VRB03KT P6SM FEW060
      TEMPO 1909/1911 6SM BR=

USA.gov is the U.S. government's official web portal to all federal, state and local government web resources and services.